Abbotsford, Wisconsin
Current Conditions -  °F | °C
As of 12:15 AM on Wednesday 26 Nov 2014 (Local Time) from KMDZ Reporting Station
Overcast Overcast  
Wind Chill: 12°   Ceiling: 5000
Heat Index: 19°   Visibility: 10mi
Dew Point: 15°   Wind: 5mph
Humidity: 86%   Direction: 120°ESE
Pressure: 30.06"   Gusts: NA
Location:  44.95°N, 90.32°W
Report Text: KMDZ 260615Z AUTO 12004KT 10SM OVC050 M07/M09 A3006 RMK AO2 T10721092
Loading
Personal Weather Stations






























Interactive Weather Map New forecast layout! Learn more

10-Day Weather Forecast

Advertisements
Track Severe Weather on mobile